createdAt,value
2018-05-15T00:04:07.942Z,85.00
2018-05-15T00:06:35.772Z,83.60
2018-05-15T00:09:04.376Z,83.60
2018-05-15T00:11:33.031Z,83.00
2018-05-15T00:14:00.901Z,83.00
2018-05-15T00:16:29.499Z,81.50
2018-05-15T00:18:58.087Z,79.60
2018-05-15T00:21:25.911Z,79.60
2018-05-15T00:23:53.722Z,79.60
2018-05-15T00:26:22.371Z,80.50
2018-05-15T00:28:50.190Z,80.60
2018-05-15T00:31:18.012Z,80.90
2018-05-15T00:39:46.963Z,81.90
2018-05-15T00:42:15.599Z,81.40
2018-05-15T00:44:44.676Z,82.80
2018-05-15T00:47:12.570Z,82.90
2018-05-15T00:49:40.382Z,83.90
2018-05-15T00:52:09.007Z,83.50
2018-05-15T01:03:56.987Z,84.40
2018-05-15T01:06:24.828Z,83.40
2018-05-15T01:08:53.413Z,84.00
2018-05-15T01:11:21.237Z,84.00
2018-05-15T01:13:49.060Z,84.40
2018-05-15T01:19:09.171Z,85.70
2018-05-15T01:28:26.244Z,86.00
2018-05-15T01:30:54.152Z,85.00
2018-05-15T01:33:21.971Z,85.00
2018-05-15T01:35:49.819Z,87.00
2018-05-15T01:38:18.399Z,86.80
2018-05-15T01:40:46.979Z,87.00
2018-05-15T01:45:57.067Z,85.10
2018-05-15T01:48:24.911Z,85.40
2018-05-15T01:50:53.533Z,85.30
2018-05-15T01:53:21.435Z,85.30
2018-05-15T01:55:49.491Z,85.00
2018-05-15T01:58:17.425Z,85.70
2018-05-15T02:00:45.324Z,85.70
2018-05-15T02:03:13.151Z,84.40
2018-05-15T02:05:41.007Z,85.50
2018-05-15T02:08:09.659Z,87.20
2018-05-15T02:10:37.475Z,87.30
2018-05-15T02:13:06.088Z,88.90
2018-05-15T02:22:41.184Z,90.30
2018-05-15T02:25:09.051Z,90.30
2018-05-15T02:27:36.839Z,90.60
2018-05-15T02:30:04.668Z,90.60
2018-05-15T02:32:32.503Z,90.80
2018-05-15T02:35:00.370Z,91.00
2018-05-15T02:37:28.232Z,91.70
2018-05-15T02:39:56.880Z,91.60
2018-05-15T02:42:24.819Z,91.60
2018-05-15T02:44:52.688Z,91.20
2018-05-15T02:47:20.543Z,91.40
2018-05-15T02:49:48.348Z,91.40
2018-05-15T02:52:16.996Z,91.50
2018-05-15T03:03:59.179Z,92.10
2018-05-15T03:06:27.034Z,91.80
2018-05-15T03:08:54.845Z,91.90
2018-05-15T03:11:22.719Z,92.20
2018-05-15T03:13:51.356Z,92.20
2018-05-15T03:19:07.600Z,92.90
2018-05-15T03:21:36.215Z,92.40
2018-05-15T03:24:04.075Z,92.40
2018-05-15T03:26:32.739Z,92.70
2018-05-15T03:29:00.579Z,92.70
2018-05-15T03:31:28.411Z,92.80
2018-05-15T03:37:37.952Z,93.40
2018-05-15T03:40:05.862Z,92.90
2018-05-15T03:42:33.749Z,92.80
2018-05-15T03:45:01.655Z,93.10
2018-05-15T03:47:30.247Z,93.10
2018-05-15T03:49:58.085Z,93.10
2018-05-15T03:52:25.974Z,93.30
2018-05-15T03:54:54.576Z,93.80
2018-05-15T03:57:22.412Z,93.70
2018-05-15T03:59:51.019Z,93.90
2018-05-15T04:02:24.658Z,93.80
2018-05-15T04:05:01.947Z,93.90
2018-05-15T04:07:35.711Z,93.80
2018-05-15T04:19:00.516Z,93.60
2018-05-15T04:21:28.332Z,93.10
2018-05-15T04:23:56.928Z,92.00
2018-05-15T04:26:24.781Z,92.00
2018-05-15T04:28:52.616Z,93.00
2018-05-15T04:31:20.500Z,92.60
2018-05-15T04:33:49.084Z,92.60
2018-05-15T04:36:17.680Z,92.60
2018-05-15T04:38:46.337Z,92.70
2018-05-15T04:41:14.176Z,92.70
2018-05-15T04:43:42.868Z,91.80
2018-05-15T04:46:10.672Z,91.80
2018-05-15T04:48:39.341Z,91.80
2018-05-15T04:51:07.939Z,92.30
2018-05-15T04:53:36.593Z,91.50
2018-05-15T04:56:04.435Z,91.50
2018-05-15T04:58:32.252Z,92.10
2018-05-15T05:01:00.888Z,92.40
2018-05-15T05:03:28.719Z,92.30
2018-05-15T05:05:56.539Z,92.40
2018-05-15T05:08:24.473Z,92.50
2018-05-15T05:10:52.374Z,92.50
2018-05-15T05:13:20.193Z,92.00
2018-05-15T05:15:48.028Z,92.10
2018-05-15T05:18:15.856Z,92.10
2018-05-15T05:20:43.684Z,92.10
2018-05-15T05:23:12.269Z,92.00
2018-05-15T05:25:40.112Z,91.90
2018-05-15T05:28:07.927Z,92.20
2018-05-15T05:30:35.763Z,92.00
2018-05-15T05:33:04.383Z,91.70
2018-05-15T05:35:32.233Z,91.80
2018-05-15T05:38:00.143Z,92.10
2018-05-15T05:40:28.005Z,91.60
2018-05-15T05:42:56.646Z,91.40
2018-05-15T05:45:24.584Z,91.40
2018-05-15T05:47:52.399Z,91.40
2018-05-15T05:50:20.271Z,91.50
2018-05-15T05:52:48.091Z,90.90
2018-05-15T05:55:16.713Z,90.70
2018-05-15T05:57:44.519Z,90.70
2018-05-15T06:00:12.362Z,90.80
2018-05-15T06:02:40.271Z,90.80
2018-05-15T06:05:08.860Z,90.70
2018-05-15T06:07:37.498Z,90.30
2018-05-15T06:10:05.351Z,90.30
2018-05-15T06:12:33.207Z,90.50
2018-05-15T06:15:01.035Z,90.60
2018-05-15T06:17:28.915Z,90.40
2018-05-15T06:19:56.719Z,89.40
2018-05-15T06:22:24.848Z,88.80
2018-05-15T06:24:52.647Z,89.20
2018-05-15T06:27:20.468Z,87.30
2018-05-15T06:29:48.341Z,88.40
2018-05-15T06:32:16.973Z,87.50
2018-05-15T06:34:47.347Z,87.50
2018-05-15T06:37:16.028Z,86.30
2018-05-15T06:39:43.873Z,86.30
2018-05-15T06:42:11.771Z,86.30
2018-05-15T06:44:39.659Z,85.10
2018-05-15T06:47:07.528Z,84.10
2018-05-15T06:49:36.210Z,80.20
2018-05-15T06:52:04.792Z,77.70
2018-05-15T06:54:32.714Z,77.40
2018-05-15T06:57:00.543Z,73.60
2018-05-15T06:59:28.368Z,70.90
2018-05-15T07:01:56.352Z,68.80
2018-05-15T07:04:24.210Z,67.40
2018-05-15T07:06:54.565Z,65.60
2018-05-15T07:09:23.272Z,62.50
2018-05-15T07:11:51.136Z,62.30
2018-05-15T07:14:19.764Z,56.50
2018-05-15T07:16:47.589Z,56.50
2018-05-15T07:19:16.336Z,53.20
2018-05-15T07:21:44.174Z,53.20
2018-05-15T07:24:12.004Z,53.30
2018-05-15T07:26:40.608Z,53.00
2018-05-15T07:29:08.559Z,53.00
2018-05-15T07:31:51.533Z,52.80
2018-05-15T07:34:19.359Z,52.50
2018-05-15T07:39:29.068Z,51.90
2018-05-15T07:41:56.931Z,50.40
2018-05-15T07:47:59.795Z,51.40
2018-05-15T07:50:27.789Z,50.40
2018-05-15T07:53:11.527Z,46.60
2018-05-15T07:55:39.359Z,46.50
2018-05-15T07:58:07.201Z,49.60
2018-05-15T08:00:35.096Z,49.70
2018-05-15T08:03:02.938Z,50.60
2018-05-15T08:05:30.759Z,49.40
2018-05-15T08:07:59.753Z,52.10
2018-05-15T08:10:28.527Z,53.40
2018-05-15T08:12:56.340Z,53.40
2018-05-15T08:15:24.235Z,54.40
2018-05-15T08:17:52.063Z,55.30
2018-05-15T08:20:19.894Z,54.50
2018-05-15T08:22:48.549Z,51.20
2018-05-15T08:25:16.679Z,51.20
2018-05-15T08:27:44.620Z,49.50
2018-05-15T08:30:12.558Z,49.30
2018-05-15T08:32:40.390Z,53.40
2018-05-15T08:35:08.233Z,55.30
2018-05-15T08:37:36.934Z,59.40
2018-05-15T08:43:42.282Z,62.80
2018-05-15T08:46:10.080Z,62.90
2018-05-15T08:48:37.891Z,65.70
2018-05-15T08:51:06.511Z,65.80
2018-05-15T08:59:00.645Z,68.60
2018-05-15T09:01:28.526Z,68.50
2018-05-15T09:03:56.374Z,69.20
2018-05-15T09:06:24.259Z,68.30
2018-05-15T09:08:52.100Z,68.50
2018-05-15T09:11:19.906Z,70.50
2018-05-15T09:16:29.329Z,71.50
2018-05-15T09:18:57.228Z,71.40
2018-05-15T09:21:25.110Z,70.20
2018-05-15T09:23:52.942Z,70.20
2018-05-15T09:26:20.763Z,72.30
2018-05-15T09:28:49.455Z,71.70
2018-05-15T09:31:18.118Z,72.70
2018-05-15T09:33:46.849Z,71.30
2018-05-15T09:36:14.659Z,71.10
2018-05-15T09:38:42.491Z,70.30
2018-05-15T09:41:10.371Z,71.80
2018-05-15T09:43:53.087Z,72.20
2018-05-15T09:46:21.017Z,71.10
2018-05-15T09:48:49.681Z,72.00
2018-05-15T09:51:18.287Z,70.70
2018-05-15T09:53:46.958Z,73.20
2018-05-15T09:56:14.775Z,73.20
2018-05-15T09:58:42.835Z,71.80
2018-05-15T10:01:10.668Z,70.90
2018-05-15T10:03:39.327Z,69.80
2018-05-15T10:06:07.157Z,69.70
2018-05-15T10:12:28.363Z,73.40
2018-05-15T10:14:56.219Z,76.60
2018-05-15T10:17:24.031Z,84.90
2018-05-15T10:19:51.933Z,90.40
2018-05-15T10:22:19.651Z,92.00
2018-05-15T10:24:47.586Z,93.30
2018-05-15T10:27:15.442Z,92.40
2018-05-15T10:29:44.078Z,93.10
2018-05-15T10:32:11.970Z,93.00
2018-05-15T10:34:39.848Z,91.20
2018-05-15T10:37:08.563Z,91.60
2018-05-15T10:39:37.208Z,88.80
2018-05-15T10:42:05.041Z,88.80
2018-05-15T10:44:32.951Z,90.60
2018-05-15T10:47:02.165Z,90.20
2018-05-15T10:49:30.833Z,89.30
2018-05-15T10:51:58.663Z,89.20
2018-05-15T10:54:26.498Z,88.70
2018-05-15T10:56:55.175Z,93.10
2018-05-15T10:59:23.861Z,93.50
2018-05-15T11:01:52.466Z,94.20
2018-05-15T11:04:21.127Z,93.10
2018-05-15T11:06:49.020Z,93.10
2018-05-15T11:11:59.383Z,94.20
2018-05-15T11:14:27.988Z,93.30
2018-05-15T11:16:55.831Z,93.20
2018-05-15T11:19:30.223Z,94.30
2018-05-15T11:22:15.919Z,94.30
2018-05-15T11:24:49.556Z,91.60
2018-05-15T11:27:17.403Z,90.40
2018-05-15T11:29:46.005Z,90.80
2018-05-15T11:32:14.991Z,90.80
2018-05-15T11:34:43.676Z,90.40
2018-05-15T11:37:12.275Z,90.60
2018-05-15T11:39:40.155Z,90.50
2018-05-15T11:42:07.996Z,90.40
2018-05-15T11:44:36.608Z,89.10
2018-05-15T11:47:04.527Z,89.00
2018-05-15T11:49:34.506Z,90.40
2018-05-15T11:52:03.147Z,91.00
2018-05-15T11:54:34.759Z,90.20
2018-05-15T11:57:02.739Z,90.20
2018-05-15T12:03:13.379Z,90.90
2018-05-15T12:05:41.255Z,88.40
2018-05-15T12:08:09.269Z,90.10
2018-05-15T12:10:37.131Z,89.00
2018-05-15T12:18:53.234Z,91.60
2018-05-15T12:21:21.135Z,90.70
2018-05-15T12:23:49.028Z,91.70
2018-05-15T12:26:16.872Z,90.50
2018-05-15T12:28:45.589Z,90.70
2018-05-15T12:31:13.422Z,90.70
2018-05-15T12:33:41.289Z,89.50
2018-05-15T12:36:09.130Z,88.80
2018-05-15T12:38:36.951Z,86.40
2018-05-15T12:41:04.831Z,84.70
2018-05-15T12:43:32.709Z,83.00
2018-05-15T12:46:00.593Z,85.40
2018-05-15T12:48:30.395Z,85.40
2018-05-15T12:58:03.407Z,82.30
2018-05-15T13:00:32.024Z,80.70
2018-05-15T13:02:59.852Z,80.60
2018-05-15T13:05:28.504Z,81.00
2018-05-15T13:07:57.094Z,82.00
2018-05-15T13:10:25.711Z,82.80
2018-05-15T13:12:53.582Z,82.70
2018-05-15T13:15:21.411Z,83.50
2018-05-15T13:17:50.016Z,86.30
2018-05-15T13:20:18.632Z,87.90
2018-05-15T13:22:46.470Z,87.90
2018-05-15T13:25:15.131Z,87.90
2018-05-15T13:27:43.027Z,87.90
2018-05-15T13:30:10.935Z,88.50
2018-05-15T13:32:38.831Z,89.00
2018-05-15T13:35:06.662Z,91.20
2018-05-15T13:37:34.743Z,92.70
2018-05-15T13:40:02.611Z,97.50
2018-05-15T13:42:30.430Z,99.70
2018-05-15T13:44:58.257Z,99.90
2018-05-15T13:47:26.875Z,99.90
2018-05-15T13:49:57.206Z,99.90
2018-05-15T13:52:25.027Z,99.90
2018-05-15T13:54:52.855Z,99.90
2018-05-15T13:57:20.668Z,99.90
2018-05-15T13:59:48.483Z,99.90
2018-05-15T14:02:16.312Z,99.90
2018-05-15T14:04:44.124Z,99.90
2018-05-15T14:07:11.948Z,99.90
2018-05-15T14:09:39.828Z,99.90
2018-05-15T14:12:08.454Z,99.90
2018-05-15T14:14:36.525Z,99.90
2018-05-15T14:17:04.383Z,99.90
2018-05-15T14:19:32.220Z,99.90
2018-05-15T14:22:00.828Z,99.90
2018-05-15T14:24:28.676Z,99.90
2018-05-15T14:33:42.373Z,99.90
2018-05-15T14:36:10.279Z,99.90
2018-05-15T14:38:38.096Z,99.90
2018-05-15T14:43:47.722Z,99.90
2018-05-15T14:46:15.535Z,99.90
2018-05-15T14:48:43.430Z,99.90
2018-05-15T14:51:31.013Z,99.90
2018-05-15T14:54:05.541Z,99.90
2018-05-15T14:56:34.136Z,99.90
2018-05-15T14:59:01.985Z,99.90
2018-05-15T15:01:29.790Z,99.90
2018-05-15T15:03:57.636Z,99.90
2018-05-15T15:06:25.451Z,99.90
2018-05-15T15:08:53.286Z,99.60
2018-05-15T15:11:21.147Z,99.50
2018-05-15T15:13:51.400Z,99.90
2018-05-15T15:16:19.295Z,99.90
2018-05-15T15:18:47.935Z,99.90
2018-05-15T15:21:15.897Z,99.90
2018-05-15T15:23:44.701Z,99.90
2018-05-15T15:26:12.663Z,99.90
2018-05-15T15:28:40.487Z,99.90
2018-05-15T15:31:08.290Z,99.90
2018-05-15T15:33:36.154Z,99.90
2018-05-15T15:36:03.984Z,99.90
2018-05-15T15:38:32.207Z,99.90
2018-05-15T15:41:00.063Z,99.90
2018-05-15T15:43:27.884Z,99.90
2018-05-15T15:45:56.601Z,99.90
2018-05-15T15:48:24.459Z,99.90
2018-05-15T15:50:53.052Z,99.90
2018-05-15T15:53:20.903Z,99.90
2018-05-15T15:55:48.738Z,99.90
2018-05-15T16:04:01.283Z,99.90
2018-05-15T16:06:29.848Z,99.90
2018-05-15T16:08:57.803Z,99.90
2018-05-15T16:11:25.679Z,99.90
2018-05-15T16:13:53.521Z,99.90
2018-05-15T16:16:21.348Z,99.90
2018-05-15T16:18:49.241Z,99.90
2018-05-15T16:21:17.072Z,99.90
2018-05-15T16:23:44.899Z,99.90
2018-05-15T16:26:12.720Z,99.90
2018-05-15T16:28:41.424Z,99.90
2018-05-15T16:34:07.612Z,99.90
2018-05-15T16:36:35.434Z,99.90
2018-05-15T16:39:04.282Z,99.90
2018-05-15T16:41:32.211Z,99.90
2018-05-15T16:44:00.044Z,99.90
2018-05-15T16:46:27.900Z,99.90
2018-05-15T16:48:55.748Z,99.90
2018-05-15T16:54:12.838Z,99.90
2018-05-15T16:56:40.743Z,99.90
2018-05-15T16:59:08.570Z,99.90
2018-05-15T17:01:36.398Z,99.90
2018-05-15T17:04:05.012Z,99.90
2018-05-15T17:06:33.596Z,99.90
2018-05-15T17:12:44.205Z,99.90
2018-05-15T17:15:12.110Z,99.90
2018-05-15T17:17:40.696Z,99.90
2018-05-15T17:20:08.527Z,99.90
2018-05-15T17:22:36.380Z,99.90
2018-05-15T17:25:04.225Z,99.90
2018-05-15T17:27:32.828Z,99.90
2018-05-15T17:30:00.708Z,99.90
2018-05-15T17:32:29.507Z,99.90
2018-05-15T17:34:57.361Z,99.90
2018-05-15T17:37:25.196Z,99.90
2018-05-15T17:39:56.299Z,99.90
2018-05-15T17:42:24.178Z,99.90
2018-05-15T17:44:52.056Z,99.90
2018-05-15T17:47:19.996Z,99.90
2018-05-15T17:49:47.796Z,99.90
2018-05-15T17:52:15.612Z,99.90
2018-05-15T17:54:43.436Z,99.90
2018-05-15T17:57:12.952Z,99.90
2018-05-15T17:59:41.568Z,99.90
2018-05-15T18:02:09.430Z,99.90
2018-05-15T18:04:37.519Z,99.90
2018-05-15T18:07:06.217Z,99.90
2018-05-15T18:09:34.098Z,99.90
2018-05-15T18:12:01.961Z,99.90
2018-05-15T18:14:30.566Z,99.90
2018-05-15T18:16:59.270Z,99.90
2018-05-15T18:19:27.104Z,99.90
2018-05-15T18:21:54.928Z,99.90
2018-05-15T18:24:22.792Z,99.90
2018-05-15T18:26:50.621Z,99.90
2018-05-15T18:29:19.231Z,99.90
2018-05-15T18:31:47.086Z,99.90
2018-05-15T18:34:16.153Z,99.90
2018-05-15T18:36:43.955Z,99.90
2018-05-15T18:39:13.282Z,99.90
2018-05-15T18:41:41.145Z,99.90
2018-05-15T18:44:09.155Z,99.90
2018-05-15T18:46:37.790Z,99.90
2018-05-15T18:49:06.462Z,99.90
2018-05-15T18:51:34.296Z,99.90
2018-05-15T18:54:02.151Z,99.90
2018-05-15T18:56:30.055Z,99.90
2018-05-15T18:58:57.964Z,99.90
2018-05-15T19:01:26.614Z,99.90
2018-05-15T19:03:55.284Z,99.90
2018-05-15T19:06:23.874Z,99.90
2018-05-15T19:08:51.724Z,99.90
2018-05-15T19:11:20.663Z,99.90
2018-05-15T19:13:48.544Z,99.90
2018-05-15T19:16:16.363Z,99.90
2018-05-15T19:18:45.108Z,99.90
2018-05-15T19:21:12.951Z,99.90
2018-05-15T19:23:40.907Z,99.90
2018-05-15T19:26:08.870Z,99.90
2018-05-15T19:28:36.802Z,99.90
2018-05-15T19:31:05.846Z,99.90
2018-05-15T19:33:39.640Z,99.90
2018-05-15T19:36:11.392Z,99.90
2018-05-15T19:38:39.461Z,99.90
2018-05-15T19:41:09.277Z,99.90
2018-05-15T19:49:01.546Z,99.90
2018-05-15T19:51:29.505Z,99.90
2018-05-15T19:53:58.121Z,99.90
2018-05-15T19:56:26.029Z,99.90
2018-05-15T19:58:53.876Z,99.90
2018-05-15T20:01:22.532Z,99.90
2018-05-15T20:07:53.442Z,99.90
2018-05-15T20:10:22.367Z,99.90
2018-05-15T20:12:50.269Z,99.90
2018-05-15T20:15:18.132Z,99.90
2018-05-15T20:17:46.086Z,99.90
2018-05-15T20:20:14.684Z,99.90
2018-05-15T20:22:42.728Z,99.90
2018-05-15T20:25:12.193Z,99.90
2018-05-15T20:33:56.718Z,99.90
2018-05-15T20:36:24.564Z,99.90
2018-05-15T20:38:52.395Z,99.90
2018-05-15T20:41:21.596Z,99.90
2018-05-15T20:43:49.415Z,99.90
2018-05-15T20:46:17.329Z,99.90
2018-05-15T20:48:45.222Z,99.90
2018-05-15T20:51:13.147Z,99.90
2018-05-15T20:53:41.169Z,99.90
2018-05-15T20:56:09.012Z,99.90
2018-05-15T20:58:36.891Z,99.90
2018-05-15T21:01:04.751Z,99.90
2018-05-15T21:03:32.577Z,99.90
2018-05-15T21:06:01.187Z,99.90
2018-05-15T21:08:29.012Z,99.90
2018-05-15T21:16:20.991Z,99.90
2018-05-15T21:18:49.595Z,99.90
2018-05-15T21:21:17.419Z,99.90
2018-05-15T21:23:45.333Z,99.90
2018-05-15T21:26:13.324Z,99.90
2018-05-15T21:28:41.232Z,99.90
2018-05-15T21:31:09.050Z,99.90
2018-05-15T21:33:36.874Z,99.90
2018-05-15T21:36:04.694Z,99.90
2018-05-15T21:38:32.496Z,99.90
2018-05-15T21:41:00.312Z,99.90
2018-05-15T21:43:28.259Z,99.90
2018-05-15T21:45:56.076Z,99.90
2018-05-15T21:48:23.888Z,99.90
2018-05-15T21:54:08.067Z,99.90
2018-05-15T21:56:35.908Z,99.90
2018-05-15T21:59:04.610Z,99.90
2018-05-15T22:01:32.469Z,99.90
2018-05-15T22:04:01.147Z,99.90
2018-05-15T22:06:29.833Z,99.90
2018-05-15T22:12:53.194Z,99.90
2018-05-15T22:15:27.822Z,99.90
2018-05-15T22:18:02.778Z,99.90
2018-05-15T22:20:37.290Z,99.90
2018-05-15T22:23:04.797Z,99.90
2018-05-15T22:25:32.624Z,99.90
2018-05-15T22:28:01.226Z,99.90
2018-05-15T22:33:59.247Z,99.90
2018-05-15T22:36:27.073Z,99.90
2018-05-15T22:38:54.880Z,99.90
2018-05-15T22:41:22.928Z,99.90
2018-05-15T22:43:50.897Z,99.90
2018-05-15T22:46:18.784Z,99.90
2018-05-15T22:48:46.780Z,99.90
2018-05-15T22:51:14.611Z,99.90
2018-05-15T22:53:42.509Z,99.90
2018-05-15T22:56:10.400Z,99.90
2018-05-15T22:58:38.263Z,99.90
2018-05-15T23:01:06.163Z,99.90
2018-05-15T23:03:33.997Z,99.90
2018-05-15T23:08:43.592Z,99.90
2018-05-15T23:11:11.407Z,99.90
2018-05-15T23:13:39.261Z,99.90
2018-05-15T23:16:08.246Z,99.90
2018-05-15T23:18:36.060Z,99.90
2018-05-15T23:21:03.905Z,99.90
2018-05-15T23:23:31.727Z,99.90
2018-05-15T23:25:59.558Z,99.90
2018-05-15T23:28:28.167Z,99.90
2018-05-15T23:30:56.755Z,99.90
2018-05-15T23:33:24.580Z,99.90
2018-05-15T23:39:06.339Z,99.90
2018-05-15T23:41:34.244Z,99.90
2018-05-15T23:44:02.091Z,99.90
2018-05-15T23:46:29.916Z,99.90
2018-05-15T23:48:58.541Z,99.90
2018-05-15T23:51:26.353Z,99.90
2018-05-15T23:53:54.156Z,99.90
2018-05-15T23:56:21.973Z,99.90
2018-05-15T23:58:50.584Z,99.90
